sensor_id;sensor_type;location;lat;lon;timestamp;pressure;altitude;pressure_sealevel;temperature;humidity
22862;BME280;11598;50.652;6.172;2023-04-02T00:06:34;95616.72;;;5.14;100.00
22862;BME280;11598;50.652;6.172;2023-04-02T00:16:39;95636.09;;;5.07;100.00
22862;BME280;11598;50.652;6.172;2023-04-02T00:26:47;95639.38;;;4.96;100.00
22862;BME280;11598;50.652;6.172;2023-04-02T00:36:48;95654.25;;;4.78;100.00
22862;BME280;11598;50.652;6.172;2023-04-02T00:46:50;95657.41;;;4.69;100.00
22862;BME280;11598;50.652;6.172;2023-04-02T00:56:54;95667.75;;;4.55;100.00
22862;BME280;11598;50.652;6.172;2023-04-02T01:06:55;95682.13;;;4.44;100.00
22862;BME280;11598;50.652;6.172;2023-04-02T01:27:12;95712.63;;;4.36;100.00
22862;BME280;11598;50.652;6.172;2023-04-02T01:47:44;95746.88;;;4.08;100.00
22862;BME280;11598;50.652;6.172;2023-04-02T01:57:48;95764.13;;;3.92;100.00
22862;BME280;11598;50.652;6.172;2023-04-02T02:07:51;95773.88;;;3.87;100.00
22862;BME280;11598;50.652;6.172;2023-04-02T02:18:00;95804.69;;;3.87;100.00
22862;BME280;11598;50.652;6.172;2023-04-02T02:28:26;95810.00;;;3.69;100.00
22862;BME280;11598;50.652;6.172;2023-04-02T02:48:41;95841.44;;;3.43;100.00
22862;BME280;11598;50.652;6.172;2023-04-02T02:58:42;95857.59;;;3.45;100.00
22862;BME280;11598;50.652;6.172;2023-04-02T03:08:52;95875.84;;;3.40;100.00
22862;BME280;11598;50.652;6.172;2023-04-02T03:29:21;95898.88;;;3.10;100.00
22862;BME280;11598;50.652;6.172;2023-04-02T03:49:42;95954.72;;;2.89;100.00
22862;BME280;11598;50.652;6.172;2023-04-02T04:10:17;95985.16;;;2.79;100.00
22862;BME280;11598;50.652;6.172;2023-04-02T04:20:38;96019.66;;;2.73;100.00
22862;BME280;11598;50.652;6.172;2023-04-02T04:30:59;96039.03;;;2.62;100.00
22862;BME280;11598;50.652;6.172;2023-04-02T04:41:11;96052.47;;;2.49;100.00
22862;BME280;11598;50.652;6.172;2023-04-02T04:51:21;96081.41;;;2.51;100.00
22862;BME280;11598;50.652;6.172;2023-04-02T05:01:36;96103.50;;;2.37;100.00
22862;BME280;11598;50.652;6.172;2023-04-02T05:11:44;96120.22;;;2.26;100.00
22862;BME280;11598;50.652;6.172;2023-04-02T05:21:54;96130.81;;;2.19;100.00
22862;BME280;11598;50.652;6.172;2023-04-02T05:32:03;96159.34;;;2.11;100.00
22862;BME280;11598;50.652;6.172;2023-04-02T05:42:06;96162.84;;;2.10;100.00
22862;BME280;11598;50.652;6.172;2023-04-02T05:52:21;96186.31;;;2.01;100.00
22862;BME280;11598;50.652;6.172;2023-04-02T06:02:38;96200.91;;;1.99;100.00
22862;BME280;11598;50.652;6.172;2023-04-02T06:12:44;96226.47;;;2.00;100.00
22862;BME280;11598;50.652;6.172;2023-04-02T06:22:48;96240.25;;;1.98;100.00
22862;BME280;11598;50.652;6.172;2023-04-02T06:32:51;96252.22;;;1.97;100.00
22862;BME280;11598;50.652;6.172;2023-04-02T06:42:52;96280.16;;;1.83;100.00
22862;BME280;11598;50.652;6.172;2023-04-02T06:53:04;96307.66;;;1.79;100.00
22862;BME280;11598;50.652;6.172;2023-04-02T07:03:08;96331.00;;;1.72;100.00
22862;BME280;11598;50.652;6.172;2023-04-02T07:13:18;96349.50;;;1.58;100.00
22862;BME280;11598;50.652;6.172;2023-04-02T07:23:18;96383.72;;;1.55;100.00
22862;BME280;11598;50.652;6.172;2023-04-02T07:33:23;96395.06;;;1.50;100.00
22862;BME280;11598;50.652;6.172;2023-04-02T07:43:23;96406.06;;;1.52;100.00
22862;BME280;11598;50.652;6.172;2023-04-02T07:53:29;96419.97;;;1.46;100.00
22862;BME280;11598;50.652;6.172;2023-04-02T08:03:30;96422.56;;;1.44;100.00
22862;BME280;11598;50.652;6.172;2023-04-02T08:13:31;96454.13;;;1.45;100.00
22862;BME280;11598;50.652;6.172;2023-04-02T08:23:31;96475.38;;;1.47;100.00
22862;BME280;11598;50.652;6.172;2023-04-02T08:33:31;96482.31;;;1.43;100.00
22862;BME280;11598;50.652;6.172;2023-04-02T08:53:59;96527.75;;;1.38;100.00
22862;BME280;11598;50.652;6.172;2023-04-02T09:04:02;96554.00;;;1.43;100.00
22862;BME280;11598;50.652;6.172;2023-04-02T09:14:18;96565.81;;;1.47;100.00
22862;BME280;11598;50.652;6.172;2023-04-02T09:24:19;96585.78;;;1.38;100.00
22862;BME280;11598;50.652;6.172;2023-04-02T09:34:34;96605.03;;;1.24;100.00
22862;BME280;11598;50.652;6.172;2023-04-02T09:44:35;96622.84;;;1.27;100.00
22862;BME280;11598;50.652;6.172;2023-04-02T09:54:36;96646.53;;;1.34;100.00
22862;BME280;11598;50.652;6.172;2023-04-02T10:04:43;96671.84;;;1.42;100.00
22862;BME280;11598;50.652;6.172;2023-04-02T10:14:47;96690.91;;;1.33;100.00
22862;BME280;11598;50.652;6.172;2023-04-02T10:24:49;96696.06;;;1.32;100.00
22862;BME280;11598;50.652;6.172;2023-04-02T10:35:11;96710.56;;;1.33;100.00
22862;BME280;11598;50.652;6.172;2023-04-02T10:55:26;96728.78;;;1.23;100.00
22862;BME280;11598;50.652;6.172;2023-04-02T11:15:39;96775.53;;;1.29;100.00
22862;BME280;11598;50.652;6.172;2023-04-02T11:25:41;96780.72;;;1.27;100.00
22862;BME280;11598;50.652;6.172;2023-04-02T11:35:41;96802.81;;;1.30;100.00
22862;BME280;11598;50.652;6.172;2023-04-02T11:55:44;96829.66;;;1.43;100.00
22862;BME280;11598;50.652;6.172;2023-04-02T12:05:51;96838.03;;;1.48;100.00
22862;BME280;11598;50.652;6.172;2023-04-02T12:15:56;96840.66;;;1.46;100.00
22862;BME280;11598;50.652;6.172;2023-04-02T12:26:03;96857.69;;;1.47;100.00
22862;BME280;11598;50.652;6.172;2023-04-02T12:46:12;96884.13;;;1.48;100.00
22862;BME280;11598;50.652;6.172;2023-04-02T12:56:21;96907.03;;;1.53;100.00
22862;BME280;11598;50.652;6.172;2023-04-02T13:06:23;96895.63;;;1.63;100.00
22862;BME280;11598;50.652;6.172;2023-04-02T13:16:28;96905.50;;;1.74;100.00
22862;BME280;11598;50.652;6.172;2023-04-02T13:26:31;96913.84;;;1.80;100.00
22862;BME280;11598;50.652;6.172;2023-04-02T13:36:32;96924.59;;;1.92;100.00
22862;BME280;11598;50.652;6.172;2023-04-02T13:46:34;96936.34;;;1.97;100.00
22862;BME280;11598;50.652;6.172;2023-04-02T13:56:35;96952.59;;;1.98;100.00
22862;BME280;11598;50.652;6.172;2023-04-02T14:47:54;97006.19;;;2.04;100.00
22862;BME280;11598;50.652;6.172;2023-04-02T14:58:00;97008.16;;;1.96;100.00
22862;BME280;11598;50.652;6.172;2023-04-02T15:08:06;97021.16;;;1.89;100.00
22862;BME280;11598;50.652;6.172;2023-04-02T15:18:15;97032.16;;;1.93;100.00
22862;BME280;11598;50.652;6.172;2023-04-02T15:28:27;97047.44;;;1.96;100.00
22862;BME280;11598;50.652;6.172;2023-04-02T15:38:37;97048.41;;;1.92;100.00
22862;BME280;11598;50.652;6.172;2023-04-02T15:48:54;97062.16;;;1.89;100.00
22862;BME280;11598;50.652;6.172;2023-04-02T15:59:00;97076.97;;;1.80;100.00
22862;BME280;11598;50.652;6.172;2023-04-02T16:09:06;97087.63;;;1.66;100.00
22862;BME280;11598;50.652;6.172;2023-04-02T16:19:43;97108.47;;;1.54;100.00
22862;BME280;11598;50.652;6.172;2023-04-02T16:40:14;97131.75;;;1.44;100.00
22862;BME280;11598;50.652;6.172;2023-04-02T17:00:48;97164.44;;;1.35;100.00
22862;BME280;11598;50.652;6.172;2023-04-02T17:11:00;97180.72;;;1.32;100.00
22862;BME280;11598;50.652;6.172;2023-04-02T17:21:05;97197.88;;;1.29;100.00
22862;BME280;11598;50.652;6.172;2023-04-02T17:31:14;97220.13;;;1.26;100.00
22862;BME280;11598;50.652;6.172;2023-04-02T18:33:52;97297.69;;;0.94;100.00
22862;BME280;11598;50.652;6.172;2023-04-02T18:44:13;97304.47;;;0.95;100.00
22862;BME280;11598;50.652;6.172;2023-04-02T18:54:38;97317.25;;;0.95;100.00
22862;BME280;11598;50.652;6.172;2023-04-02T19:04:50;97336.06;;;0.93;100.00
22862;BME280;11598;50.652;6.172;2023-04-02T19:14:52;97355.81;;;0.88;100.00
22862;BME280;11598;50.652;6.172;2023-04-02T19:35:32;97370.38;;;0.84;100.00
22862;BME280;11598;50.652;6.172;2023-04-02T19:45:42;97376.38;;;0.83;100.00
22862;BME280;11598;50.652;6.172;2023-04-02T19:55:44;97386.63;;;0.81;100.00
22862;BME280;11598;50.652;6.172;2023-04-02T20:05:44;97384.91;;;0.82;100.00
22862;BME280;11598;50.652;6.172;2023-04-02T20:15:45;97382.41;;;0.79;100.00
22862;BME280;11598;50.652;6.172;2023-04-02T20:25:55;97386.78;;;0.74;100.00
22862;BME280;11598;50.652;6.172;2023-04-02T20:36:01;97392.06;;;0.66;100.00
22862;BME280;11598;50.652;6.172;2023-04-02T20:46:04;97403.31;;;0.56;100.00
22862;BME280;11598;50.652;6.172;2023-04-02T20:56:11;97410.28;;;0.49;100.00
22862;BME280;11598;50.652;6.172;2023-04-02T21:06:16;97416.16;;;0.54;100.00
22862;BME280;11598;50.652;6.172;2023-04-02T21:16:23;97413.59;;;0.54;100.00
22862;BME280;11598;50.652;6.172;2023-04-02T21:26:24;97438.28;;;0.55;100.00
22862;BME280;11598;50.652;6.172;2023-04-02T21:36:28;97442.56;;;0.55;100.00
22862;BME280;11598;50.652;6.172;2023-04-02T21:46:32;97444.31;;;0.53;100.00
22862;BME280;11598;50.652;6.172;2023-04-02T21:56:35;97456.34;;;0.48;100.00
22862;BME280;11598;50.652;6.172;2023-04-02T22:06:39;97459.22;;;0.28;100.00
22862;BME280;11598;50.652;6.172;2023-04-02T22:16:40;97464.66;;;0.09;100.00
22862;BME280;11598;50.652;6.172;2023-04-02T22:26:41;97463.13;;;-0.01;100.00
22862;BME280;11598;50.652;6.172;2023-04-02T22:36:42;97464.94;;;-0.08;100.00
22862;BME280;11598;50.652;6.172;2023-04-02T22:46:42;97466.00;;;-0.21;100.00
22862;BME280;11598;50.652;6.172;2023-04-02T22:56:43;97470.44;;;-0.34;100.00
22862;BME280;11598;50.652;6.172;2023-04-02T23:06:43;97473.19;;;-0.48;100.00
22862;BME280;11598;50.652;6.172;2023-04-02T23:16:43;97481.84;;;-0.58;100.00
22862;BME280;11598;50.652;6.172;2023-04-02T23:26:44;97477.66;;;-0.64;100.00
22862;BME280;11598;50.652;6.172;2023-04-02T23:36:44;97474.44;;;-0.76;100.00
22862;BME280;11598;50.652;6.172;2023-04-02T23:46:45;97477.06;;;-0.81;100.00
22862;BME280;11598;50.652;6.172;2023-04-02T23:56:46;97482.25;;;-0.89;100.00
